Winner, SD

6:58 PM CDT on August 20, 2014 (GMT -0500)
Winner | Change Station
CLOSE
Current Station
Airport
Location: Winner,
Elevation: 2031 ft
Nearby Weather Stations

Elev 2031 ft 43.39 °N, 99.84 °W | Updated 5 minutes ago

Clear
Clear
89 °F
Feels Like 91 °F
N
15
Wind Variable Wind from SSE

Today
High -- | Low -- °F
--% Chance of Precip.
Yesterday
High -- | Low -- °F
Precip. -- in
6:50 AM 8:34 PM
Waning Crescent, 18% visible
Pressure 29.62 in
Visibility 10.0 miles
Clouds Clear
Heat Index 91 °F
Dew Point 65 °F
Humidity 45%
Rainfall 0.00 in
Snow Depth Not available.
UV 1 out of 12
Pollen 9.70 out of 12
Air Quality Not available.
Flu Activity Not available.
METAR KICR 202353Z AUTO 15013KT 10SM CLR 32/18 A2968 RMK AO2 SLP031 60000 T03170183 10328 20272 58005

More Conditions Fewer Conditions

Pressure 29.62 in
Visibility 10.0 miles
Clouds Clear
Heat Index 91 °F
Dew Point 65 °F
Humidity 45%
Rainfall 0.00 in
Snow Depth Not available.
UV 1 out of 12
Pollen 9.70 out of 12
Air Quality Not available.
Flu Activity Not available.
METAR KICR 202353Z AUTO 15013KT 10SM CLR 32/18 A2968 RMK AO2 SLP031 60000 T03170183 10328 20272 58005

More Conditions Fewer Conditions

10-Day Weather Forecast

Almanac

Astronomy

Aug. 20, 2014 Rise Set
Actual Time 6:50 AM CDT 8:34 PM CDT
Civil Twilight 6:19 AM CDT 9:04 PM CDT
Nautical Twilight 5:42 AM CDT 9:41 PM CDT
Astronomical Twilight 5:02 AM CDT 10:21 PM CDT
Moon 2:28 AM CDT 5:23 PM CDT
Length of Visible Light 14h 45m
Length of Day
13h 44m
Tomorrow will be 2m 42s shorter.
Waning Crescent, 18% of the Moon is Illuminated
Today
Waning Crescent
Aug 25
New
Sep 2
First Quarter
Sep 8
Full
Sep 15
Last Quarter

Today's Extremes

State Highs State Lows

Community

WunderPhotos

Upload Photos

1,745,801 photos uploaded!

Nearby

Snow Depth

Station Depth Elevation
Blind Park 0 in 6890 ft

Earthquake Activity

City Distance Mag. Time & Date
No recent earthquake activity has been reported nearby.
Minimum magnitude displayed is 2.5.

Coastal Water Temperatures

Place Temperature
No Stations Reporting

Nearby Weather Stations